Terminal Aerodrome Forecast
Issued by NWS

Home | Current Version | Previous Version | Text Only | Print | Product List | Glossary On
Versions: 1 2 3 4 5 6 7 8 9 10 11 12 13 14 15 16 17 18
000
FTUS43 KSGF 020500
TAFBBG
TAF
KBBG 020520Z 0206/0306 VRB04KT P6SM SCT040 OVC200
     FM020900 15007KT 5SM -TSRA BR BKN040CB OVC070
      TEMPO 0209/0213 2SM +TSRA BR SCT007 BKN025CB
     FM021500 20006KT P6SM SCT015 BKN070
     FM022000 14005KT P6SM SCT250=

USA.gov is the U.S. government's official web portal to all federal, state and local government web resources and services.